METAR UND TAF INFORMATION
LTFM 240320Z 01011KT 6000 FEW017CB BKN025 17/16 Q1008 RETSRA TEMPO -TSRA

 FLUGHAFENKARTE

 RUNWAY INFORMATION

 AIRPORT FREQUENCIES

 AIRPORT NEAR NAVIGATION AIDS